Time;durP1;ratioP1;P1;durP2;ratioP2;P2;SDS_P1;SDS_P2;PMS_P1;PMS_P2;Temp;Humidity;BMP_temperature;BMP_pressure;BME280_temperature;BME280_humidity;BME280_pressure;Samples;Min_cycle;Max_cycle;Signal;HPM_P1;HPM_P2
2021/01/28 00:00:25;;;;;;;16.23;9.80;;;;;;;-1.33;88.10;98792.67;1681726;85;21116;-64
2021/01/28 00:02:53;;;;;;;14.93;8.38;;;;;;;-1.36;88.07;98779.77;1666413;86;21485;-68
2021/01/28 00:05:22;;;;;;;14.70;9.35;;;;;;;-1.37;87.90;98776.78;1681681;85;21131;-68
2021/01/28 00:07:49;;;;;;;14.85;9.68;;;;;;;-1.42;88.14;98766.94;1666445;86;21553;-67
2021/01/28 00:10:17;;;;;;;17.25;10.35;;;;;;;-1.42;88.21;98772.11;1716510;78;21173;-64
2021/01/28 00:12:46;;;;;;;19.37;10.38;;;;;;;-1.45;88.08;98776.84;1726188;81;21087;-64
2021/01/28 00:15:17;;;;;;;20.62;10.25;;;;;;;-1.45;88.23;98775.98;1724786;83;22037;-64
2021/01/28 00:17:45;;;;;;;15.35;9.65;;;;;;;-1.48;88.22;98765.27;1724829;83;21526;-62
2021/01/28 00:20:25;;;;;;;13.53;8.33;;;;;;;-1.48;88.31;98755.78;1724911;82;21104;-63
2021/01/28 00:22:53;;;;;;;16.37;9.65;;;;;;;-1.49;88.26;98759.25;1724827;82;21547;-63
2021/01/28 00:25:21;;;;;;;17.37;9.48;;;;;;;-1.51;88.27;98766.59;1713876;79;21176;-70
2021/01/28 00:27:49;;;;;;;15.72;8.78;;;;;;;-1.50;88.45;98775.59;1701270;84;21519;-68
2021/01/28 00:30:22;;;;;;;15.80;9.93;;;;;;;-1.53;88.33;98770.91;1701174;84;21156;-68
2021/01/28 00:32:50;;;;;;;18.25;11.43;;;;;;;-1.52;88.59;98774.78;1701260;84;21160;-68
2021/01/28 00:35:27;;;;;;;13.68;8.58;;;;;;;-1.53;88.36;98771.77;1701162;84;21121;-69
2021/01/28 00:37:56;;;;;;;18.12;10.30;;;;;;;-1.51;88.52;98767.44;1701203;84;21148;-68
2021/01/28 00:40:24;;;;;;;17.73;10.35;;;;;;;-1.49;88.45;98771.31;1723263;80;21460;-62
2021/01/28 00:42:51;;;;;;;18.80;10.13;;;;;;;-1.49;88.53;98767.00;1735972;82;21632;-63
2021/01/28 00:45:22;;;;;;;15.95;9.93;;;;;;;-1.45;88.45;98759.20;1735966;82;21538;-62
2021/01/28 00:47:53;;;;;;;15.98;9.75;;;;;;;-1.42;88.70;98747.13;1736215;82;21608;-64
2021/01/28 00:50:23;;;;;;;14.38;9.20;;;;;;;-1.42;88.69;98723.05;1713645;82;21094;-63
2021/01/28 00:52:52;;;;;;;17.10;9.23;;;;;;;-1.44;88.30;98710.58;1736293;82;22278;-62
2021/01/28 00:55:20;;;;;;;13.90;8.75;;;;;;;-1.44;88.62;98718.33;1732830;79;21129;-63
2021/01/28 00:57:50;;;;;;;16.93;9.15;;;;;;;-1.44;88.26;98728.21;1733734;82;21153;-61
2021/01/28 01:00:33;;;;;;;14.68;7.90;;;;;;;-1.45;88.48;98726.48;1733585;82;21533;-62
2021/01/28 01:03:01;;;;;;;13.95;8.00;;;;;;;-1.48;88.08;98723.95;1708343;82;21152;-63
2021/01/28 01:05:32;;;;;;;13.70;8.40;;;;;;;-1.53;87.97;98734.33;1700466;84;22252;-63
2021/01/28 01:08:03;;;;;;;14.28;8.70;;;;;;;-1.54;87.89;98737.80;1702566;82;21147;-63
2021/01/28 01:10:45;;;;;;;12.47;8.18;;;;;;;-1.56;88.01;98734.37;1712627;81;21101;-67
2021/01/28 01:13:17;;;;;;;15.83;8.70;;;;;;;-1.55;88.11;98733.48;1678333;84;21196;-67
2021/01/28 01:15:45;;;;;;;16.32;9.88;;;;;;;-1.53;87.90;98739.48;1723432;81;21573;-64
2021/01/28 01:18:16;;;;;;;14.87;8.60;;;;;;;-1.55;87.90;98730.90;1720941;83;22250;-65
2021/01/28 01:20:44;;;;;;;;;;;;;;;-1.54;87.81;98727.87;1693126;84;21128;-65
2021/01/28 01:23:14;;;;;;;13.70;7.78;;;;;;;-1.57;87.79;98734.38;1698181;84;20252;-65
2021/01/28 01:26:09;;;;;;;16.80;9.10;;;;;;;-1.54;87.96;98735.63;1788397;74;22778;-64
2021/01/28 01:28:38;;;;;;;13.93;8.78;;;;;;;-1.56;88.11;98731.78;1735447;82;21206;-62
2021/01/28 01:31:08;;;;;;;16.12;9.50;;;;;;;-1.54;87.90;98731.75;1732780;82;21296;-63
2021/01/28 01:33:36;;;;;;;14.85;7.85;;;;;;;-1.54;87.74;98717.55;1759708;81;21146;-64
2021/01/28 01:36:16;;;;;;;17.73;8.93;;;;;;;-1.50;87.57;98716.20;1870694;75;22705;-65
2021/01/28 01:38:46;;;;;;;13.43;8.20;;;;;;;-1.54;87.58;98711.98;1823486;78;21158;-63
2021/01/28 01:41:14;;;;;;;14.45;8.10;;;;;;;-1.54;87.71;98710.69;1787446;77;22279;-64
2021/01/28 01:43:43;;;;;;;13.18;7.58;;;;;;;-1.56;87.43;98695.64;1771114;80;21040;-63
2021/01/28 01:46:13;;;;;;;20.60;9.25;;;;;;;-1.56;87.49;98691.77;1744269;82;21193;-64
2021/01/28 01:48:54;;;;;;;13.65;8.25;;;;;;;-1.58;87.49;98679.31;1744262;82;21229;-64
2021/01/28 01:51:34;;;;;;;19.77;9.48;;;;;;;-1.58;87.52;98681.89;1713160;82;21601;-65
2021/01/28 01:54:26;;;;;;;14.43;8.83;;;;;;;-1.56;87.51;98688.34;1741590;82;21270;-65
2021/01/28 01:57:02;;;;;;;14.53;8.35;;;;;;;-1.54;87.71;98695.61;1707049;78;21232;-64
2021/01/28 01:59:41;;;;;;;17.90;9.20;;;;;;;-1.52;87.67;98712.81;1700312;82;21196;-63
2021/01/28 02:02:26;;;;;;;17.45;8.80;;;;;;;-1.52;87.55;98696.03;1699736;84;21224;-63
2021/01/28 02:05:24;;;;;;;12.47;7.83;;;;;;;-1.51;87.32;98695.15;1699761;84;21751;-63
2021/01/28 02:08:06;;;;;;;13.03;8.00;;;;;;;-1.47;87.12;98690.81;1845337;75;22761;-69
2021/01/28 02:10:40;;;;;;;15.25;8.68;;;;;;;-1.53;87.21;98677.52;1763186;77;21210;-64
2021/01/28 02:13:10;;;;;;;15.15;7.85;;;;;;;-1.51;87.54;98671.91;1689470;82;21407;-65
2021/01/28 02:15:40;;;;;;;13.62;8.10;;;;;;;-1.50;87.37;98666.30;1752924;81;21171;-65
2021/01/28 02:18:08;;;;;;;12.75;7.90;;;;;;;-1.48;87.68;98669.73;1753109;80;21198;-63
2021/01/28 02:21:17;;;;;;;11.83;7.83;;;;;;;-1.48;87.52;98667.98;1750912;81;21446;-65
2021/01/28 02:24:05;;;;;;;13.53;7.67;;;;;;;-1.51;87.43;98662.88;1752517;81;21200;-63
2021/01/28 02:26:34;;;;;;;13.45;7.22;;;;;;;-1.49;87.29;98661.58;1722857;78;21671;-65
2021/01/28 02:29:07;;;;;;;15.55;7.35;;;;;;;-1.49;87.28;98651.25;1683904;84;21588;-64
2021/01/28 02:31:36;;;;;;;17.48;8.95;;;;;;;-1.51;87.15;98649.96;1701346;84;21645;-64
2021/01/28 02:34:06;;;;;;;11.03;6.95;;;;;;;-1.50;87.26;98644.36;1686985;84;21182;-65
2021/01/28 02:36:44;;;;;;;15.63;8.60;;;;;;;-1.49;87.29;98645.64;1700783;83;21222;-65
2021/01/28 02:39:28;;;;;;;15.27;8.20;;;;;;;-1.44;87.37;98629.23;1845922;76;22741;-64
2021/01/28 02:42:21;;;;;;;11.43;6.95;;;;;;;-1.52;87.26;98632.78;1767139;76;21657;-65
2021/01/28 02:44:55;;;;;;;17.10;9.20;;;;;;;-1.47;87.16;98623.69;1888017;75;22626;-66
2021/01/28 02:47:41;;;;;;;17.87;9.00;;;;;;;-1.53;87.06;98628.47;1858965;77;21660;-64
2021/01/28 02:50:27;;;;;;;17.57;9.68;;;;;;;-1.52;87.09;98632.78;1819649;78;21211;-66
2021/01/28 02:53:00;;;;;;;19.67;10.35;;;;;;;-1.55;86.75;98639.69;1749399;80;21199;-64
2021/01/28 02:55:30;;;;;;;19.48;9.85;;;;;;;-1.56;87.05;98642.72;1795176;77;21143;-64
2021/01/28 02:57:58;;;;;;;26.05;11.93;;;;;;;-1.54;87.08;98655.17;1689883;84;21575;-65
2021/01/28 03:00:31;;;;;;;14.68;8.15;;;;;;;-1.56;86.96;98658.20;1700226;83;21388;-65
2021/01/28 03:03:06;;;;;;;19.67;10.55;;;;;;;-1.56;87.19;98659.50;1689567;84;21475;-67
2021/01/28 03:05:49;;;;;;;22.22;11.08;;;;;;;-1.53;87.21;98660.74;1702495;83;21183;-66
2021/01/28 03:08:19;;;;;;;20.05;10.05;;;;;;;-1.50;87.32;98643.91;1702517;84;21191;-65
2021/01/28 03:10:53;;;;;;;20.52;10.65;;;;;;;-1.48;87.11;98628.41;1717713;79;22090;-66
2021/01/28 03:13:24;;;;;;;17.17;9.95;;;;;;;-1.48;87.08;98639.59;1756135;81;21123;-67
2021/01/28 03:15:54;;;;;;;20.35;11.65;;;;;;;-1.46;87.56;98656.81;1755540;80;21380;-66
2021/01/28 03:18:25;;;;;;;19.55;10.58;;;;;;;-1.46;87.07;98671.01;1726104;81;21221;-65
2021/01/28 03:20:55;;;;;;;20.52;10.32;;;;;;;-1.51;87.04;98664.61;1726276;83;21189;-66
2021/01/28 03:23:25;;;;;;;18.90;11.05;;;;;;;-1.51;87.24;98655.12;1723545;81;21488;-66
2021/01/28 03:26:14;;;;;;;18.87;10.50;;;;;;;-1.44;87.22;98646.03;1836956;73;22859;-65
2021/01/28 03:28:43;;;;;;;20.95;11.15;;;;;;;-1.49;87.28;98628.86;1747287;80;21215;-64
2021/01/28 03:31:14;;;;;;;19.67;10.20;;;;;;;-1.45;87.54;98630.09;1741322;81;21293;-64
2021/01/28 03:33:42;;;;;;;21.42;11.83;;;;;;;-1.43;87.36;98629.64;1741620;81;21225;-63
2021/01/28 03:36:11;;;;;;;21.60;12.00;;;;;;;-1.44;87.62;98631.83;1741708;82;21596;-64
2021/01/28 03:38:39;;;;;;;19.57;9.95;;;;;;;-1.41;87.53;98645.53;1741720;82;21224;-64
2021/01/28 03:41:07;;;;;;;17.65;10.23;;;;;;;-1.41;87.49;98640.37;1759999;77;21223;-66
2021/01/28 03:43:36;;;;;;;20.32;11.35;;;;;;;-1.38;87.21;98640.77;1769970;81;21374;-64
2021/01/28 03:46:05;;;;;;;21.80;11.50;;;;;;;-1.39;87.23;98637.33;1770173;81;21045;-65
2021/01/28 03:48:36;;;;;;;19.00;10.70;;;;;;;-1.36;87.46;98635.14;1768645;80;21596;-64
2021/01/28 03:51:06;;;;;;;18.27;9.20;;;;;;;-1.37;87.07;98633.45;1765409;81;21571;-65
2021/01/28 03:53:51;;;;;;;22.17;11.20;;;;;;;-1.41;86.93;98636.94;1766521;81;21187;-65
2021/01/28 03:56:21;;;;;;;14.95;9.55;;;;;;;-1.39;87.06;98642.94;1733052;79;21260;-65
2021/01/28 03:58:49;;;;;;;18.48;8.93;;;;;;;-1.39;87.12;98642.50;1674808;85;21208;-66
2021/01/28 04:01:21;;;;;;;19.98;10.53;;;;;;;-1.40;86.94;98634.76;1696564;84;21702;-63
2021/01/28 04:03:51;;;;;;;21.73;11.85;;;;;;;-1.39;86.87;98633.46;1708052;84;21202;-65
2021/01/28 04:06:28;;;;;;;21.10;9.67;;;;;;;-1.34;87.05;98637.27;1822815;76;22797;-65
2021/01/28 04:09:05;;;;;;;25.08;11.83;;;;;;;-1.38;87.00;98636.89;1764019;80;21222;-70
2021/01/28 04:11:39;;;;;;;21.23;11.22;;;;;;;-1.39;86.88;98627.45;1737132;80;21202;-65
2021/01/28 04:14:08;;;;;;;19.20;9.70;;;;;;;-1.38;86.99;98620.11;1775332;79;21158;-65
2021/01/28 04:16:36;;;;;;;19.35;9.50;;;;;;;-1.37;86.91;98632.16;1788947;80;21150;-65
2021/01/28 04:19:05;;;;;;;19.77;9.80;;;;;;;-1.35;87.26;98624.80;1790437;80;21166;-66
2021/01/28 04:21:37;;;;;;;24.52;11.40;;;;;;;-1.34;86.99;98638.56;1789852;80;21210;-65
2021/01/28 04:24:07;;;;;;;21.27;10.72;;;;;;;-1.37;86.82;98633.45;1790152;80;21280;-64
2021/01/28 04:26:45;;;;;;;20.23;10.27;;;;;;;-1.34;86.84;98634.25;1857724;75;23325;-65
2021/01/28 04:29:13;;;;;;;25.30;12.07;;;;;;;-1.37;86.94;98636.87;1786125;80;21147;-66
2021/01/28 04:31:43;;;;;;;25.32;11.95;;;;;;;-1.36;86.78;98639.02;1786401;80;21348;-65
2021/01/28 04:34:28;;;;;;;20.77;11.43;;;;;;;-1.32;86.61;98634.23;1846204;76;22718;-66
2021/01/28 04:36:57;;;;;;;24.43;11.73;;;;;;;-1.37;86.76;98623.97;1816255;79;21630;-66
2021/01/28 04:39:29;;;;;;;24.10;11.33;;;;;;;-1.37;86.71;98617.95;1805895;79;21442;-65
2021/01/28 04:41:58;;;;;;;20.30;10.48;;;;;;;-1.38;86.42;98622.69;1756652;76;21228;-65
2021/01/28 04:44:26;;;;;;;19.60;9.38;;;;;;;-1.40;86.65;98620.55;1705388;84;21735;-65
2021/01/28 04:47:16;;;;;;;17.82;10.30;;;;;;;-1.34;86.71;98620.48;1830189;76;28193;-65
2021/01/28 04:49:54;;;;;;;20.43;10.63;;;;;;;-1.30;86.93;98620.87;1816135;79;21127;-68
2021/01/28 04:52:32;;;;;;;19.87;10.82;;;;;;;-1.23;86.81;98621.64;1816213;79;21349;-65
2021/01/28 04:55:20;;;;;;;21.73;10.60;;;;;;;-1.24;86.26;98633.72;1815965;79;21174;-65
2021/01/28 04:58:01;;;;;;;20.23;10.65;;;;;;;-1.25;86.36;98638.45;1711633;82;21221;-65
2021/01/28 05:00:32;;;;;;;17.80;10.00;;;;;;;-1.23;86.69;98630.23;1723042;81;21235;-64
2021/01/28 05:03:31;;;;;;;16.57;9.63;;;;;;;-1.19;86.46;98625.91;1864489;76;28400;-63
2021/01/28 05:06:07;;;;;;;19.48;9.88;;;;;;;-1.18;86.42;98623.72;1783637;78;21158;-63
2021/01/28 05:08:39;;;;;;;16.73;8.60;;;;;;;-1.15;85.88;98611.63;1815218;78;21202;-65
2021/01/28 05:11:28;;;;;;;18.23;8.93;;;;;;;-1.17;85.96;98599.61;1794641;78;21271;-66
2021/01/28 05:14:33;;;;;;;19.17;10.10;;;;;;;-1.20;86.14;98597.90;1742471;81;21184;-63
2021/01/28 05:17:29;;;;;;;22.27;10.37;;;;;;;-1.17;86.03;98608.21;1835343;77;22696;-65
2021/01/28 05:20:07;;;;;;;16.85;9.90;;;;;;;-1.22;86.23;98607.43;1807605;79;21152;-64
2021/01/28 05:22:44;;;;;;;21.12;9.73;;;;;;;-1.23;86.40;98594.08;1769577;79;21560;-65
2021/01/28 05:25:30;;;;;;;18.48;10.85;;;;;;;-1.23;86.54;98583.75;1807400;79;21198;-64
2021/01/28 05:28:38;;;;;;;15.90;9.08;;;;;;;-1.25;86.38;98576.45;1709437;82;21163;-65
2021/01/28 05:31:32;;;;;;;20.08;10.80;;;;;;;-1.29;86.33;98571.78;1729046;82;21206;-64
2021/01/28 05:34:28;;;;;;;22.10;11.57;;;;;;;-1.29;86.43;98587.70;1737739;82;21183;-64
2021/01/28 05:37:02;;;;;;;21.62;11.38;;;;;;;-1.29;87.26;98592.86;1711416;82;21183;-64
2021/01/28 05:39:39;;;;;;;20.15;11.20;;;;;;;-1.30;87.29;98594.59;1708300;83;21215;-64
2021/01/28 05:42:27;;;;;;;22.17;11.05;;;;;;;-1.31;86.93;98589.48;1726359;80;21201;-66
2021/01/28 05:44:57;;;;;;;22.37;11.03;;;;;;;-1.31;86.79;98592.06;1729007;83;21133;-67
2021/01/28 05:47:30;;;;;;;24.45;13.78;;;;;;;-1.35;86.56;98577.47;1728641;83;21152;-65
2021/01/28 05:50:30;;;;;;;22.40;11.00;;;;;;;-1.30;86.89;98580.39;1844110;76;22736;-65
2021/01/28 05:53:16;;;;;;;24.57;13.40;;;;;;;-1.38;86.85;98591.70;1816189;78;21127;-66
2021/01/28 05:55:53;;;;;;;19.98;10.38;;;;;;;-1.36;86.80;98602.86;1815131;77;21202;-66
2021/01/28 05:58:42;;;;;;;18.62;10.80;;;;;;;-1.37;86.94;98600.72;1791083;80;21198;-67
2021/01/28 06:01:44;;;;;;;25.45;11.30;;;;;;;-1.36;87.05;98589.95;1730000;81;21250;-67
2021/01/28 06:05:11;;;;;;;18.67;10.70;;;;;;;-1.29;87.16;98591.57;1835057;78;22828;-69
2021/01/28 06:08:05;;;;;;;25.92;11.43;;;;;;;-1.35;87.11;98592.52;1807100;79;21669;-68
2021/01/28 06:11:07;;;;;;;23.15;11.08;;;;;;;-1.35;87.11;98593.81;1798655;79;22290;-67
2021/01/28 06:14:13;;;;;;;21.77;11.28;;;;;;;-1.36;86.86;98601.57;1710784;83;21210;-64
2021/01/28 06:16:57;;;;;;;21.82;13.05;;;;;;;-1.34;86.97;98597.25;1709173;83;21164;-65
2021/01/28 06:19:35;;;;;;;19.92;11.33;;;;;;;-1.31;87.72;98581.73;1685111;83;21202;-66
2021/01/28 06:22:48;;;;;;;23.83;11.63;;;;;;;-1.24;87.54;98585.93;1917498;73;22764;-66
2021/01/28 06:26:03;;;;;;;21.05;11.08;;;;;;;-1.28;87.16;98581.23;1851752;76;22205;-66
2021/01/28 06:28:50;;;;;;;18.77;10.13;;;;;;;-1.28;87.21;98576.51;1733431;82;21334;-65
2021/01/28 06:31:59;;;;;;;23.90;11.60;;;;;;;-1.25;87.72;98562.69;1736595;82;21204;-65
2021/01/28 06:34:57;;;;;;;23.70;13.08;;;;;;;-1.24;87.44;98569.55;1737617;82;21153;-64
2021/01/28 06:38:00;;;;;;;24.37;13.60;;;;;;;-1.21;87.52;98563.91;1888287;76;22647;-64
2021/01/28 06:40:53;;;;;;;24.87;14.43;;;;;;;-1.23;87.71;98569.54;1847007;76;21172;-65
2021/01/28 06:44:09;;;;;;;26.95;14.33;;;;;;;-1.20;87.68;98572.06;1685891;85;21397;-66
2021/01/28 06:46:52;;;;;;;18.82;11.03;;;;;;;-1.17;87.74;98569.46;1706888;81;21182;-65
2021/01/28 06:50:08;;;;;;;26.30;13.53;;;;;;;-1.16;88.43;98571.60;1758540;81;21169;-66
2021/01/28 06:53:07;;;;;;;27.65;14.70;;;;;;;-1.13;87.91;98569.84;1772147;80;21225;-66
2021/01/28 06:56:32;;;;;;;23.45;11.93;;;;;;;-1.11;87.68;98571.93;1768626;80;21416;-65
2021/01/28 06:59:18;;;;;;;29.35;15.03;;;;;;;-1.11;87.44;98573.67;1729099;81;21385;-63
2021/01/28 07:02:08;;;;;;;25.72;12.78;;;;;;;-1.09;87.49;98562.44;1738553;81;21169;-65
2021/01/28 07:05:11;;;;;;;22.52;12.33;;;;;;;-1.06;87.31;98574.45;1735540;81;21227;-66
2021/01/28 07:07:57;;;;;;;29.52;14.98;;;;;;;-1.09;86.99;98571.48;1740892;81;21134;-65
2021/01/28 07:10:41;;;;;;;26.17;13.68;;;;;;;-1.11;86.95;98564.18;1737401;81;21189;-65
2021/01/28 07:13:23;;;;;;;25.62;13.83;;;;;;;-1.11;86.76;98556.43;1724291;78;21599;-67
2021/01/28 07:16:01;;;;;;;23.90;13.00;;;;;;;-1.07;86.64;98545.18;1722970;83;21289;-65
2021/01/28 07:18:36;;;;;;;27.13;14.45;;;;;;;-1.02;86.60;98541.67;1711408;83;21623;-67
2021/01/28 07:21:10;;;;;;;27.98;13.08;;;;;;;-1.00;86.32;98538.63;1711979;83;21229;-65
2021/01/28 07:23:39;;;;;;;26.33;13.88;;;;;;;-1.02;86.34;98537.36;1683063;83;21240;-65
2021/01/28 07:27:20;;;;;;;28.83;14.90;;;;;;;-0.93;86.11;98523.44;1784829;76;22773;-68
2021/01/28 07:29:54;;;;;;;28.32;14.95;;;;;;;-1.00;85.80;98526.56;1693065;83;21178;-67
2021/01/28 07:32:27;;;;;;;23.77;13.32;;;;;;;-1.03;85.74;98533.08;1687649;83;21220;-67
2021/01/28 07:35:39;;;;;;;25.47;13.50;;;;;;;-0.99;85.86;98541.62;1845416;76;22698;-69
2021/01/28 07:38:36;;;;;;;23.18;12.65;;;;;;;-1.03;86.01;98541.28;1815195;78;21641;-67
2021/01/28 07:41:26;;;;;;;27.58;14.20;;;;;;;-1.02;85.99;98551.56;1785454;77;21254;-66
2021/01/28 07:44:37;;;;;;;23.07;12.35;;;;;;;-1.01;85.93;98544.66;1649492;84;21183;-67
2021/01/28 07:47:33;;;;;;;19.42;11.88;;;;;;;-0.98;86.05;98548.52;1692170;84;21207;-66
2021/01/28 07:50:24;;;;;;;20.70;12.07;;;;;;;-0.88;86.24;98550.05;1690082;81;21178;-67
2021/01/28 07:52:57;;;;;;;26.65;12.88;;;;;;;-0.82;86.06;98549.97;1722408;83;21206;-65
2021/01/28 07:55:42;;;;;;;25.25;13.30;;;;;;;-0.77;86.23;98551.19;1706125;83;21222;-66
2021/01/28 07:58:30;;;;;;;27.67;11.08;;;;;;;-0.75;86.13;98551.56;1712640;81;21221;-69
2021/01/28 08:01:02;;;;;;;19.20;11.05;;;;;;;-0.75;86.13;98546.40;1741079;81;21146;-69
2021/01/28 08:03:38;;;;;;;21.85;11.73;;;;;;;-0.72;86.48;98550.21;1697784;84;21196;-67
2021/01/28 08:06:11;;;;;;;27.32;14.30;;;;;;;-0.69;86.61;98538.97;1735419;81;21222;-71
2021/01/28 08:08:38;;;;;;;22.05;12.10;;;;;;;-0.66;86.56;98559.17;1725232;81;22424;-68
2021/01/28 08:11:35;;;;;;;27.70;14.23;;;;;;;-0.65;86.54;98563.45;1730645;81;21659;-68
2021/01/28 08:14:05;;;;;;;29.67;14.45;;;;;;;-0.63;86.68;98566.02;1705839;82;21193;-67
2021/01/28 08:16:33;;;;;;;23.55;13.70;;;;;;;-0.58;86.70;98569.81;1711236;82;21205;-67
2021/01/28 08:19:15;;;;;;;20.90;11.53;;;;;;;-0.54;86.69;98555.52;1725678;82;21173;-66
2021/01/28 08:21:45;;;;;;;23.62;13.13;;;;;;;-0.50;86.74;98544.25;1712010;82;23601;-67
2021/01/28 08:24:34;;;;;;;26.40;13.28;;;;;;;-0.45;86.70;98550.19;1691091;82;21243;-66
2021/01/28 08:26:52;;;;;;;27.35;13.98;;;;;;;-0.40;86.47;98546.22;1691938;80;21681;-67
2021/01/28 08:29:21;;;;;;;28.70;13.78;;;;;;;-0.36;86.58;98540.56;1764272;79;21136;-65
2021/01/28 08:31:52;;;;;;;33.63;16.40;;;;;;;-0.38;86.06;98537.15;1764524;81;21101;-66
2021/01/28 08:34:25;;;;;;;36.63;17.92;;;;;;;-0.36;86.53;98539.27;1764791;81;21380;-66
2021/01/28 08:37:03;;;;;;;30.68;15.55;;;;;;;-0.28;86.39;98542.11;1760086;81;21172;-66
2021/01/28 08:39:34;;;;;;;30.57;15.55;;;;;;;-0.20;86.35;98541.14;1764473;81;21565;-66
2021/01/28 08:42:06;;;;;;;31.55;16.25;;;;;;;-0.14;85.88;98526.77;1764570;79;21163;-67
2021/01/28 08:44:34;;;;;;;28.73;13.95;;;;;;;-0.10;85.39;98534.89;1749840;81;21101;-67
2021/01/28 08:47:12;;;;;;;29.90;15.30;;;;;;;-0.05;85.47;98539.52;1762358;81;21358;-68
2021/01/28 08:49:40;;;;;;;28.85;14.53;;;;;;;0.00;85.28;98517.02;1763554;81;21099;-67
2021/01/28 08:52:14;;;;;;;28.98;16.02;;;;;;;0.05;84.90;98514.34;1761563;81;21152;-65
2021/01/28 08:54:43;;;;;;;24.40;12.73;;;;;;;0.05;84.81;98521.66;1760464;80;21098;-68
2021/01/28 08:57:15;;;;;;;29.07;14.43;;;;;;;0.05;84.76;98522.95;1756969;79;21578;-67
2021/01/28 08:59:48;;;;;;;26.57;12.30;;;;;;;0.02;84.60;98519.11;1739255;82;21368;-67
2021/01/28 09:02:31;;;;;;;23.77;12.00;;;;;;;-0.01;84.52;98529.53;1743204;81;21122;-67
2021/01/28 09:05:03;;;;;;;28.87;14.20;;;;;;;0.00;85.18;98520.91;1715313;82;21603;-67
2021/01/28 09:07:53;;;;;;;25.52;12.07;;;;;;;0.02;84.66;98520.84;1745409;82;21130;-67
2021/01/28 09:10:34;;;;;;;29.18;13.45;;;;;;;0.02;84.81;98513.09;1747333;82;21100;-67
2021/01/28 09:13:22;;;;;;;27.82;13.68;;;;;;;0.03;84.64;98514.36;1723363;80;21339;-66
2021/01/28 09:16:14;;;;;;;25.62;12.63;;;;;;;0.02;84.79;98503.58;1697168;83;21120;-66
2021/01/28 09:18:45;;;;;;;25.90;13.72;;;;;;;0.08;85.20;98500.03;1672586;85;21131;-66
2021/01/28 09:21:16;;;;;;;;;;;;;;;0.18;85.00;98499.81;1695878;84;21168;-67
2021/01/28 09:24:05;;;;;;;31.87;15.88;;;;;;;0.23;84.29;98491.07;1693061;83;20239;-65
2021/01/28 09:29:36;;;;;;;25.97;13.67;;;;;;;0.31;83.80;98481.41;1763327;79;22838;-67
2021/01/28 09:32:15;;;;;;;32.93;17.82;;;;;;;0.23;83.93;98486.77;1730978;82;21214;-67
2021/01/28 09:34:42;;;;;;;30.65;15.48;;;;;;;0.23;84.24;98480.72;1727889;82;21982;-68
2021/01/28 09:37:20;;;;;;;28.83;14.15;;;;;;;0.20;84.38;98466.95;1730682;82;21214;-68
2021/01/28 09:39:52;;;;;;;28.15;14.00;;;;;;;0.20;84.24;98469.53;1734025;82;21618;-67
2021/01/28 09:42:33;;;;;;;27.13;13.93;;;;;;;0.19;83.97;98476.91;1673950;81;21256;-65
2021/01/28 09:45:11;;;;;;;28.42;15.23;;;;;;;0.24;84.09;98487.61;1685564;84;21217;-66
2021/01/28 09:47:39;;;;;;;28.70;13.68;;;;;;;0.22;84.11;98492.81;1713778;83;21385;-66
2021/01/28 09:50:11;;;;;;;26.33;12.33;;;;;;;0.20;84.43;98486.81;1632253;84;21628;-66
2021/01/28 09:52:44;;;;;;;22.62;12.05;;;;;;;0.22;84.37;98489.38;1700223;83;21681;-64
2021/01/28 09:55:15;;;;;;;27.60;12.88;;;;;;;0.25;84.79;98481.54;1649569;86;21650;-66
2021/01/28 09:57:43;;;;;;;23.80;12.10;;;;;;;0.28;84.81;98476.31;1656356;83;21668;-68
2021/01/28 10:00:16;;;;;;;30.90;14.20;;;;;;;0.28;84.89;98461.63;1652955;86;21202;-67
2021/01/28 10:02:48;;;;;;;27.15;13.72;;;;;;;0.32;84.77;98467.15;1649168;86;21237;-68
2021/01/28 10:05:20;;;;;;;27.65;12.55;;;;;;;0.33;85.03;98472.72;1645051;86;21227;-67
2021/01/28 10:07:50;;;;;;;26.52;13.50;;;;;;;0.33;84.68;98469.29;1654007;86;21818;-67
2021/01/28 10:10:21;;;;;;;27.45;12.45;;;;;;;0.34;84.99;98479.59;1667870;86;21208;-66
2021/01/28 10:12:52;;;;;;;24.30;12.73;;;;;;;0.35;84.50;98459.75;1666812;81;22662;-66
2021/01/28 10:15:21;;;;;;;25.20;12.37;;;;;;;0.32;84.68;98458.09;1664683;84;21233;-65
2021/01/28 10:17:50;;;;;;;20.82;11.20;;;;;;;0.36;85.06;98451.92;1658949;85;21781;-66
2021/01/28 10:20:18;;;;;;;21.15;11.60;;;;;;;0.34;84.25;98466.64;1695893;84;21174;-67
2021/01/28 10:22:47;;;;;;;24.82;10.95;;;;;;;0.35;84.72;98466.23;1692874;84;21597;-66
2021/01/28 10:25:16;;;;;;;24.20;11.75;;;;;;;0.28;84.34;98453.85;1696222;84;21465;-66
2021/01/28 10:27:45;;;;;;;25.35;12.10;;;;;;;0.29;84.55;98446.93;1694138;81;21131;-66
2021/01/28 10:30:15;;;;;;;19.05;10.08;;;;;;;0.31;84.76;98445.16;1706256;83;21111;-65
2021/01/28 10:32:46;;;;;;;19.80;10.35;;;;;;;0.33;85.26;98435.62;1719762;82;21122;-66
2021/01/28 10:35:17;;;;;;;20.82;10.00;;;;;;;0.40;85.25;98433.30;1684623;85;21122;-65
2021/01/28 10:37:45;;;;;;;20.08;9.25;;;;;;;0.36;84.70;98432.95;1695460;84;22288;-65
2021/01/28 10:40:14;;;;;;;21.25;9.83;;;;;;;0.38;84.99;98449.31;1682552;83;21144;-64
2021/01/28 10:42:42;;;;;;;19.05;10.23;;;;;;;0.37;84.91;98452.80;1699375;82;21563;-65
2021/01/28 10:45:16;;;;;;;23.62;9.65;;;;;;;0.34;84.57;98458.03;1766851;80;21531;-66
2021/01/28 10:47:45;;;;;;;18.62;9.50;;;;;;;0.32;84.68;98459.38;1755003;80;21136;-66
2021/01/28 10:50:15;;;;;;;20.82;9.78;;;;;;;0.33;84.81;98453.75;1749597;81;21260;-66
2021/01/28 10:52:43;;;;;;;19.17;9.85;;;;;;;0.29;84.75;98455.99;1722934;81;21164;-66
2021/01/28 10:55:12;;;;;;;20.27;9.60;;;;;;;0.31;85.07;98455.07;1742837;81;21098;-66
2021/01/28 10:57:40;;;;;;;20.57;10.25;;;;;;;0.29;84.45;98462.47;1736765;79;21245;-67
2021/01/28 11:00:09;;;;;;;18.75;9.90;;;;;;;0.25;84.43;98462.97;1657923;86;21160;-68
2021/01/28 11:02:37;;;;;;;17.77;9.05;;;;;;;0.24;84.57;98464.31;1658074;86;21398;-65
2021/01/28 11:05:07;;;;;;;19.75;10.38;;;;;;;0.16;84.46;98457.57;1704016;83;21601;-71
2021/01/28 11:07:36;;;;;;;19.37;9.97;;;;;;;0.15;84.46;98458.44;1694590;84;21176;-67
2021/01/28 11:10:06;;;;;;;18.07;9.93;;;;;;;0.17;84.58;98453.23;1707618;82;21191;-67
2021/01/28 11:12:34;;;;;;;17.32;8.25;;;;;;;0.14;84.70;98448.98;1708481;80;21119;-66
2021/01/28 11:15:03;;;;;;;18.40;8.63;;;;;;;0.11;84.76;98439.97;1709752;83;21459;-66
2021/01/28 11:17:33;;;;;;;17.67;9.08;;;;;;;0.10;84.81;98450.38;1700936;82;21153;-64
2021/01/28 11:20:00;;;;;;;18.35;9.63;;;;;;;0.12;85.00;98452.48;1699686;83;21727;-64
2021/01/28 11:22:28;;;;;;;19.45;9.78;;;;;;;0.12;85.01;98432.63;1699926;84;21580;-64
2021/01/28 11:24:56;;;;;;;17.20;8.90;;;;;;;0.11;85.01;98442.55;1699862;84;21098;-67
2021/01/28 11:27:25;;;;;;;16.20;8.68;;;;;;;0.09;85.12;98432.70;1697619;81;21383;-66
2021/01/28 11:29:53;;;;;;;18.35;9.78;;;;;;;0.07;85.11;98418.94;1690455;83;21142;-68
2021/01/28 11:32:21;;;;;;;17.17;9.93;;;;;;;0.05;85.00;98429.77;1691576;84;21104;-68
2021/01/28 11:34:51;;;;;;;16.35;8.50;;;;;;;0.06;85.20;98426.28;1697486;84;21176;-70
2021/01/28 11:37:18;;;;;;;18.27;9.00;;;;;;;0.11;85.31;98425.73;1698741;84;21093;-68
2021/01/28 11:39:47;;;;;;;15.90;8.43;;;;;;;0.14;85.13;98419.21;1684873;84;21480;-69
2021/01/28 11:42:37;;;;;;;15.80;8.75;;;;;;;0.17;84.98;98420.42;1657864;85;21177;-68
2021/01/28 11:45:06;;;;;;;12.58;7.30;;;;;;;0.19;84.60;98418.66;1679487;84;21132;-69
2021/01/28 11:47:34;;;;;;;16.12;7.60;;;;;;;0.23;84.82;98414.70;1681474;84;21181;-66
2021/01/28 11:50:02;;;;;;;14.40;8.98;;;;;;;0.24;84.87;98411.23;1719655;82;21149;-65
2021/01/28 11:52:30;;;;;;;14.33;7.58;;;;;;;0.23;84.86;98401.33;1712856;82;21786;-65
2021/01/28 11:54:57;;;;;;;12.82;8.40;;;;;;;0.32;84.70;98400.24;1715234;83;21158;-67
2021/01/28 11:57:32;;;;;;;15.55;8.40;;;;;;;0.40;84.55;98390.57;1715812;82;21196;-67
2021/01/28 12:00:00;;;;;;;16.37;9.23;;;;;;;0.39;84.36;98383.67;1721676;82;21644;-67
2021/01/28 12:02:28;;;;;;;12.35;7.12;;;;;;;0.39;84.38;98386.26;1755505;79;21638;-68
2021/01/28 12:04:56;;;;;;;12.03;7.67;;;;;;;0.39;84.32;98381.08;1750292;80;21410;-67
2021/01/28 12:07:25;;;;;;;14.20;8.00;;;;;;;0.39;84.12;98381.08;1750104;81;21842;-67
2021/01/28 12:09:54;;;;;;;11.28;7.15;;;;;;;0.39;84.40;98370.30;1750245;80;21146;-68
2021/01/28 12:12:21;;;;;;;13.00;7.92;;;;;;;0.45;84.65;98360.22;1750007;82;21608;-67